createdAt,value
2018-05-08T00:00:14.997Z,2.05
2018-05-08T00:01:17.767Z,2.58
2018-05-08T00:02:20.288Z,1.90
2018-05-08T00:03:23.523Z,2.30
2018-05-08T00:04:26.000Z,2.10
2018-05-08T00:05:28.750Z,2.08
2018-05-08T00:06:31.251Z,2.33
2018-05-08T00:07:33.735Z,2.22
2018-05-08T00:08:36.210Z,2.10
2018-05-08T00:09:38.676Z,2.28
2018-05-08T00:10:42.136Z,2.12
2018-05-08T00:11:45.387Z,2.00
2018-05-08T00:12:47.864Z,1.92
2018-05-08T00:13:50.536Z,2.33
2018-05-08T00:14:53.008Z,2.05
2018-05-08T00:15:55.850Z,1.98
2018-05-08T00:16:58.355Z,2.08
2018-05-08T00:18:00.845Z,2.10
2018-05-08T00:19:03.316Z,2.10
2018-05-08T00:20:06.834Z,1.90
2018-05-08T00:21:10.423Z,2.20
2018-05-08T00:22:12.931Z,2.28
2018-05-08T00:23:15.416Z,1.90
2018-05-08T00:24:17.888Z,2.00
2018-05-08T00:25:21.345Z,2.00
2018-05-08T00:26:25.635Z,2.28
2018-05-08T00:27:28.119Z,2.05
2018-05-08T00:28:30.596Z,1.92
2018-05-08T00:29:33.827Z,2.05
2018-05-08T00:30:36.493Z,2.20
2018-05-08T00:31:38.988Z,2.20
2018-05-08T00:32:41.452Z,2.10
2018-05-08T00:33:43.939Z,2.15
2018-05-08T00:34:46.404Z,2.20
2018-05-08T00:35:49.834Z,2.10
2018-05-08T00:36:52.334Z,2.33
2018-05-08T00:37:54.799Z,2.22
2018-05-08T00:38:57.283Z,2.35
2018-05-08T00:40:01.272Z,2.22
2018-05-08T00:41:03.925Z,2.58
2018-05-08T00:42:06.416Z,2.78
2018-05-08T00:43:08.884Z,2.35
2018-05-08T00:44:12.135Z,2.60
2018-05-08T00:45:14.896Z,2.35
2018-05-08T00:46:17.757Z,2.25
2018-05-08T00:47:21.065Z,2.15
2018-05-08T00:48:23.535Z,2.28
2018-05-08T00:49:26.020Z,2.22
2018-05-08T00:50:29.559Z,2.40
2018-05-08T00:51:32.068Z,2.70
2018-05-08T00:52:34.531Z,1.98
2018-05-08T00:53:36.999Z,1.90
2018-05-08T00:54:51.295Z,2.00
2018-05-08T00:55:53.945Z,2.20
2018-05-08T00:56:56.440Z,2.40
2018-05-08T00:57:58.912Z,2.10
2018-05-08T00:59:01.372Z,2.20
2018-05-08T01:00:04.128Z,2.37
2018-05-08T01:01:07.002Z,2.05
2018-05-08T01:02:09.509Z,2.37
2018-05-08T01:03:11.973Z,2.10
2018-05-08T01:04:14.454Z,2.30
2018-05-08T01:05:17.267Z,1.95
2018-05-08T01:06:19.937Z,2.42
2018-05-08T01:07:22.433Z,2.00
2018-05-08T01:08:24.912Z,2.20
2018-05-08T01:09:27.382Z,2.35
2018-05-08T01:10:30.104Z,2.03
2018-05-08T01:11:32.615Z,2.03
2018-05-08T01:12:35.083Z,2.28
2018-05-08T01:13:37.548Z,2.00
2018-05-08T01:14:40.016Z,2.12
2018-05-08T01:15:42.864Z,2.20
2018-05-08T01:16:45.344Z,2.12
2018-05-08T01:17:47.816Z,2.08
2018-05-08T01:18:51.063Z,2.60
2018-05-08T01:19:53.543Z,2.12
2018-05-08T01:20:56.249Z,2.25
2018-05-08T01:21:58.741Z,2.22
2018-05-08T01:23:01.209Z,2.35
2018-05-08T01:24:03.675Z,1.95
2018-05-08T01:25:06.484Z,2.10
2018-05-08T01:26:09.212Z,2.83
2018-05-08T01:27:11.700Z,2.12
2018-05-08T01:28:14.163Z,1.95
2018-05-08T01:29:16.632Z,1.77
2018-05-08T01:30:19.480Z,2.33
2018-05-08T01:31:22.280Z,2.15
2018-05-08T01:32:24.748Z,2.00
2018-05-08T01:33:27.216Z,2.05
2018-05-08T01:34:29.683Z,2.10
2018-05-08T01:35:32.416Z,2.20
2018-05-08T01:36:34.936Z,2.30
2018-05-08T01:37:38.171Z,1.92
2018-05-08T01:38:40.640Z,1.87
2018-05-08T01:39:43.108Z,1.90
2018-05-08T01:40:46.009Z,1.70
2018-05-08T01:41:49.292Z,1.92
2018-05-08T01:42:51.764Z,2.17
2018-05-08T01:43:54.235Z,1.90
2018-05-08T01:44:58.207Z,1.80
2018-05-08T01:46:01.051Z,1.80
2018-05-08T01:47:03.631Z,2.00
2018-05-08T01:48:06.112Z,2.25
2018-05-08T01:49:08.579Z,1.90
2018-05-08T01:50:11.341Z,1.90
2018-05-08T01:51:14.091Z,2.22
2018-05-08T01:52:16.612Z,2.08
2018-05-08T01:53:19.078Z,1.80
2018-05-08T01:54:22.319Z,1.85
2018-05-08T01:55:26.507Z,2.05
2018-05-08T01:56:29.036Z,2.10
2018-05-08T01:57:31.532Z,2.12
2018-05-08T01:58:34.024Z,1.90
2018-05-08T01:59:36.488Z,2.10
2018-05-08T02:00:39.240Z,2.28
2018-05-08T02:01:41.731Z,2.47
2018-05-08T02:02:44.251Z,1.77
2018-05-08T02:03:47.484Z,2.00
2018-05-08T02:04:49.948Z,1.70
2018-05-08T02:05:52.728Z,2.00
2018-05-08T02:06:55.218Z,2.03
2018-05-08T02:07:57.703Z,2.12
2018-05-08T02:09:00.171Z,2.05
2018-05-08T02:10:02.647Z,2.17
2018-05-08T02:11:05.417Z,1.70
2018-05-08T02:12:07.912Z,1.95
2018-05-08T02:13:10.392Z,1.92
2018-05-08T02:14:12.851Z,1.98
2018-05-08T02:15:15.682Z,2.00
2018-05-08T02:16:18.350Z,2.10
2018-05-08T02:17:20.845Z,2.12
2018-05-08T02:18:23.344Z,1.80
2018-05-08T02:19:25.817Z,1.98
2018-05-08T02:20:29.336Z,2.28
2018-05-08T02:21:32.595Z,2.37
2018-05-08T02:22:35.824Z,2.12
2018-05-08T02:23:38.315Z,2.10
2018-05-08T02:24:40.791Z,1.98
2018-05-08T02:25:43.543Z,1.90
2018-05-08T02:26:46.024Z,1.70
2018-05-08T02:27:48.487Z,1.92
2018-05-08T02:28:51.732Z,2.05
2018-05-08T02:29:54.215Z,2.05
2018-05-08T02:30:56.946Z,2.08
2018-05-08T02:31:59.435Z,1.83
2018-05-08T02:33:01.910Z,2.05
2018-05-08T02:34:04.408Z,2.10
2018-05-08T02:35:07.930Z,1.90
2018-05-08T02:36:10.599Z,2.20
2018-05-08T02:37:13.092Z,1.85
2018-05-08T02:38:15.568Z,1.85
2018-05-08T02:39:18.052Z,2.00
2018-05-08T02:40:20.762Z,2.05
2018-05-08T02:41:23.329Z,1.85
2018-05-08T02:42:25.824Z,2.10
2018-05-08T02:43:28.298Z,2.10
2018-05-08T02:44:30.785Z,2.28
2018-05-08T02:45:34.984Z,2.17
2018-05-08T02:46:38.238Z,1.90
2018-05-08T02:47:40.708Z,2.10
2018-05-08T02:48:43.167Z,1.90
2018-05-08T02:49:45.652Z,1.95
2018-05-08T02:50:48.417Z,2.20
2018-05-08T02:51:51.672Z,2.15
2018-05-08T02:52:54.139Z,2.65
2018-05-08T02:53:56.607Z,2.05
2018-05-08T02:54:59.092Z,2.25
2018-05-08T02:56:01.831Z,1.90
2018-05-08T02:57:04.324Z,2.37
2018-05-08T02:58:06.784Z,2.42
2018-05-08T02:59:09.249Z,2.00
2018-05-08T03:00:11.985Z,2.87
2018-05-08T03:01:14.710Z,2.17
2018-05-08T03:02:17.960Z,2.55
2018-05-08T03:03:20.424Z,2.37
2018-05-08T03:04:22.904Z,2.22
2018-05-08T03:05:25.740Z,2.00
2018-05-08T03:06:28.348Z,2.30
2018-05-08T03:07:30.812Z,2.12
2018-05-08T03:08:33.272Z,2.30
2018-05-08T03:09:35.740Z,2.20
2018-05-08T03:10:38.577Z,2.00
2018-05-08T03:11:41.084Z,2.50
2018-05-08T03:12:43.544Z,2.15
2018-05-08T03:13:46.015Z,1.85
2018-05-08T03:14:48.483Z,2.15
2018-05-08T03:15:51.203Z,2.20
2018-05-08T03:16:53.700Z,2.20
2018-05-08T03:17:56.171Z,2.20
2018-05-08T03:18:58.637Z,2.00
2018-05-08T03:20:01.108Z,2.10
2018-05-08T03:21:04.239Z,2.42
2018-05-08T03:22:06.740Z,1.95
2018-05-08T03:23:09.204Z,2.03
2018-05-08T03:24:11.667Z,2.22
2018-05-08T03:25:14.333Z,2.10
2018-05-08T03:26:17.074Z,2.03
2018-05-08T03:27:19.563Z,2.00
2018-05-08T03:28:22.023Z,2.00
2018-05-08T03:29:24.496Z,2.20
2018-05-08T03:30:27.339Z,2.40
2018-05-08T03:31:29.856Z,2.00
2018-05-08T03:32:32.328Z,2.10
2018-05-08T03:33:35.565Z,2.12
2018-05-08T03:34:38.037Z,2.35
2018-05-08T03:35:40.677Z,2.45
2018-05-08T03:36:43.183Z,2.12
2018-05-08T03:37:45.648Z,2.17
2018-05-08T03:38:48.116Z,2.05
2018-05-08T03:39:50.592Z,2.08
2018-05-08T03:40:53.236Z,2.15
2018-05-08T03:41:55.748Z,2.20
2018-05-08T03:42:58.980Z,2.50
2018-05-08T03:44:01.440Z,2.10
2018-05-08T03:45:04.130Z,2.00
2018-05-08T03:46:07.695Z,1.98
2018-05-08T03:47:10.197Z,2.35
2018-05-08T03:48:12.664Z,2.25
2018-05-08T03:49:15.131Z,2.50
2018-05-08T03:50:17.946Z,2.05
2018-05-08T03:51:20.820Z,2.47
2018-05-08T03:52:23.648Z,2.50
2018-05-08T03:53:26.111Z,2.22
2018-05-08T03:54:28.576Z,1.95
2018-05-08T03:55:31.291Z,2.20
2018-05-08T03:56:33.780Z,2.30
2018-05-08T03:57:36.263Z,2.37
2018-05-08T03:58:38.724Z,2.20
2018-05-08T03:59:41.188Z,2.10
2018-05-08T04:00:55.901Z,2.30
2018-05-08T04:02:10.242Z,2.40
2018-05-08T04:03:24.696Z,2.10
2018-05-08T04:04:38.923Z,2.50
2018-05-08T04:07:36.835Z,2.30
2018-05-08T04:08:39.321Z,2.17
2018-05-08T04:09:41.780Z,2.58
2018-05-08T04:10:44.600Z,2.30
2018-05-08T04:11:47.080Z,2.22
2018-05-08T04:12:49.568Z,2.53
2018-05-08T04:13:52.048Z,2.28
2018-05-08T04:14:54.515Z,2.40
2018-05-08T04:15:57.168Z,2.30
2018-05-08T04:16:59.648Z,2.40
2018-05-08T04:18:02.120Z,2.37
2018-05-08T04:19:04.607Z,2.30
2018-05-08T04:20:08.110Z,2.70
2018-05-08T04:21:11.066Z,2.65
2018-05-08T04:22:13.546Z,2.45
2018-05-08T04:23:16.003Z,2.50
2018-05-08T04:24:18.488Z,2.40
2018-05-08T04:25:21.147Z,2.40
2018-05-08T04:26:23.925Z,2.72
2018-05-08T04:27:26.420Z,3.40
2018-05-08T04:28:28.896Z,4.05
2018-05-08T04:29:31.391Z,3.33
2018-05-08T04:30:34.902Z,2.62
2018-05-08T04:31:37.396Z,2.60
2018-05-08T04:32:39.859Z,2.50
2018-05-08T04:33:42.320Z,2.03
2018-05-08T04:34:44.816Z,2.90
2018-05-08T04:35:47.530Z,2.95
2018-05-08T04:36:50.028Z,4.35
2018-05-08T04:37:52.488Z,4.47
2018-05-08T04:38:54.955Z,5.20
2018-05-08T04:39:57.469Z,3.12
2018-05-08T04:41:00.990Z,3.22
2018-05-08T04:42:03.476Z,6.20
2018-05-08T04:43:05.944Z,6.00
2018-05-08T04:44:08.414Z,6.87
2018-05-08T04:45:11.141Z,4.50
2018-05-08T04:46:14.017Z,3.85
2018-05-08T04:47:16.571Z,2.92
2018-05-08T04:48:19.004Z,2.50
2018-05-08T04:49:22.196Z,2.37
2018-05-08T04:50:25.613Z,2.20
2018-05-08T04:51:28.248Z,2.55
2018-05-08T04:52:30.712Z,2.70
2018-05-08T04:53:33.176Z,2.40
2018-05-08T04:54:36.423Z,3.55
2018-05-08T04:55:39.915Z,3.95
2018-05-08T04:56:42.408Z,3.83
2018-05-08T04:57:44.876Z,5.70
2018-05-08T04:58:47.340Z,3.60
2018-05-08T04:59:50.581Z,4.85
2018-05-08T05:00:53.368Z,4.40
2018-05-08T05:01:55.852Z,3.03
2018-05-08T05:02:58.320Z,2.90
2018-05-08T05:04:00.788Z,2.20
2018-05-08T05:05:03.440Z,2.80
2018-05-08T05:06:07.082Z,2.55
2018-05-08T05:07:09.580Z,2.75
2018-05-08T05:08:12.048Z,2.97
2018-05-08T05:09:14.512Z,2.80
2018-05-08T05:10:17.146Z,3.10
2018-05-08T05:11:19.915Z,4.45
2018-05-08T05:12:22.412Z,2.83
2018-05-08T05:13:24.876Z,2.30
2018-05-08T05:14:27.339Z,5.22
2018-05-08T05:15:30.096Z,4.65
2018-05-08T05:16:32.604Z,3.17
2018-05-08T05:17:35.069Z,3.65
2018-05-08T05:18:37.533Z,2.72
2018-05-08T05:19:40.772Z,2.35
2018-05-08T05:20:43.526Z,2.80
2018-05-08T05:21:46.028Z,2.72
2018-05-08T05:22:48.489Z,2.75
2018-05-08T05:23:50.952Z,2.40
2018-05-08T05:24:53.420Z,2.45
2018-05-08T05:25:56.064Z,2.47
2018-05-08T05:26:58.577Z,2.37
2018-05-08T05:28:01.829Z,2.37
2018-05-08T05:29:04.295Z,2.95
2018-05-08T05:30:06.933Z,2.65
2018-05-08T05:31:10.365Z,2.78
2018-05-08T05:32:13.644Z,3.80
2018-05-08T05:33:16.114Z,3.20
2018-05-08T05:34:18.585Z,2.70
2018-05-08T05:35:22.838Z,1.95
2018-05-08T05:36:25.617Z,2.17
2018-05-08T05:37:28.126Z,2.30
2018-05-08T05:38:30.589Z,2.37
2018-05-08T05:39:33.060Z,2.10
2018-05-08T05:40:36.491Z,6.22
2018-05-08T05:41:38.992Z,2.87
2018-05-08T05:42:41.558Z,3.83
2018-05-08T05:43:44.716Z,2.30
2018-05-08T05:44:47.187Z,2.12
2018-05-08T05:45:50.348Z,3.80
2018-05-08T05:46:52.844Z,2.50
2018-05-08T05:47:55.323Z,2.97
2018-05-08T05:48:57.783Z,2.67
2018-05-08T05:50:01.826Z,2.97
2018-05-08T05:51:04.490Z,3.30
2018-05-08T05:52:06.981Z,3.40
2018-05-08T05:53:09.463Z,2.40
2018-05-08T05:54:11.936Z,2.80
2018-05-08T05:55:14.574Z,2.10
2018-05-08T05:56:17.447Z,4.10
2018-05-08T05:57:19.948Z,2.40
2018-05-08T05:58:22.452Z,2.30
2018-05-08T05:59:25.688Z,2.70
2018-05-08T06:00:28.463Z,2.40
2018-05-08T06:01:31.306Z,3.62
2018-05-08T06:02:33.848Z,2.37
2018-05-08T06:03:37.108Z,2.80
2018-05-08T06:04:39.576Z,2.40
2018-05-08T06:05:43.854Z,2.70
2018-05-08T06:06:46.340Z,2.40
2018-05-08T06:07:48.820Z,2.22
2018-05-08T06:08:52.080Z,2.72
2018-05-08T06:09:54.552Z,2.25
2018-05-08T06:10:57.321Z,2.40
2018-05-08T06:11:59.826Z,2.50
2018-05-08T06:13:03.052Z,1.90
2018-05-08T06:14:05.844Z,2.20
2018-05-08T06:15:08.561Z,2.45
2018-05-08T06:16:11.333Z,3.80
2018-05-08T06:17:13.840Z,3.08
2018-05-08T06:18:16.306Z,2.40
2018-05-08T06:19:18.785Z,3.65
2018-05-08T06:20:23.276Z,3.30
2018-05-08T06:21:26.931Z,5.25
2018-05-08T06:22:29.415Z,3.25
2018-05-08T06:23:31.884Z,2.33
2018-05-08T06:24:34.425Z,3.12
2018-05-08T06:25:37.203Z,2.75
2018-05-08T06:26:39.776Z,2.30
2018-05-08T06:27:42.188Z,2.50
2018-05-08T06:28:44.656Z,2.78
2018-05-08T06:29:47.911Z,2.30
2018-05-08T06:30:51.568Z,2.58
2018-05-08T06:31:54.096Z,3.47
2018-05-08T06:32:56.536Z,2.40
2018-05-08T06:33:59.159Z,3.25
2018-05-08T06:35:01.664Z,3.00
2018-05-08T06:36:04.445Z,2.40
2018-05-08T06:37:07.696Z,2.17
2018-05-08T06:38:10.176Z,2.00
2018-05-08T06:39:12.693Z,2.40
2018-05-08T06:40:15.486Z,2.53
2018-05-08T06:41:18.359Z,2.30
2018-05-08T06:42:20.855Z,2.37
2018-05-08T06:43:23.320Z,2.37
2018-05-08T06:44:25.783Z,3.42
2018-05-08T06:45:28.636Z,2.60
2018-05-08T06:46:31.148Z,2.87
2018-05-08T06:47:34.391Z,2.55
2018-05-08T06:48:36.851Z,2.42
2018-05-08T06:49:39.328Z,3.00
2018-05-08T06:50:42.076Z,2.58
2018-05-08T06:51:45.359Z,3.12
2018-05-08T06:52:47.833Z,2.47
2018-05-08T06:53:50.318Z,2.92
2018-05-08T06:54:52.789Z,2.45
2018-05-08T06:55:55.623Z,2.60
2018-05-08T06:56:59.165Z,2.87
2018-05-08T06:58:01.692Z,2.35
2018-05-08T06:59:04.155Z,2.62
2018-05-08T07:00:06.810Z,2.62
2018-05-08T07:01:09.711Z,2.10
2018-05-08T07:02:12.217Z,2.08
2018-05-08T07:03:14.677Z,2.40
2018-05-08T07:04:17.908Z,2.50
2018-05-08T07:05:20.611Z,2.30
2018-05-08T07:06:23.496Z,2.50
2018-05-08T07:07:25.960Z,2.30
2018-05-08T07:08:29.199Z,2.67
2018-05-08T07:09:31.663Z,2.30
2018-05-08T07:10:34.421Z,2.50
2018-05-08T07:11:36.921Z,2.80
2018-05-08T07:12:39.391Z,1.90
2018-05-08T07:13:41.854Z,2.33
2018-05-08T07:14:44.316Z,2.50
2018-05-08T07:15:47.223Z,2.40
2018-05-08T07:16:49.641Z,2.70
2018-05-08T07:17:52.109Z,2.70
2018-05-08T07:18:54.576Z,1.98
2018-05-08T07:19:57.043Z,2.17
2018-05-08T07:21:00.397Z,2.00
2018-05-08T07:22:02.936Z,2.30
2018-05-08T07:23:06.168Z,2.17
2018-05-08T07:24:08.672Z,2.12
2018-05-08T07:25:11.378Z,2.22
2018-05-08T07:26:14.074Z,2.53
2018-05-08T07:27:17.344Z,2.47
2018-05-08T07:28:19.816Z,2.30
2018-05-08T07:29:22.344Z,2.72
2018-05-08T07:30:25.867Z,2.60
2018-05-08T07:31:28.436Z,2.72
2018-05-08T07:32:30.920Z,2.42
2018-05-08T07:33:33.388Z,2.17
2018-05-08T07:34:35.856Z,2.47
2018-05-08T07:35:38.631Z,2.17
2018-05-08T07:36:41.111Z,2.10
2018-05-08T07:37:43.599Z,2.30
2018-05-08T07:38:46.832Z,2.10
2018-05-08T07:39:49.292Z,2.97
2018-05-08T07:40:52.130Z,2.65
2018-05-08T07:41:55.176Z,1.92
2018-05-08T07:42:58.440Z,2.20
2018-05-08T07:44:00.908Z,2.20
2018-05-08T07:45:04.343Z,2.30
2018-05-08T07:46:07.011Z,1.92
2018-05-08T07:47:09.508Z,2.12
2018-05-08T07:48:11.994Z,2.45
2018-05-08T07:49:15.235Z,2.00
2018-05-08T07:50:18.302Z,2.17
2018-05-08T07:51:20.976Z,2.33
2018-05-08T07:52:23.463Z,2.00
2018-05-08T07:53:25.948Z,2.30
2018-05-08T07:54:28.416Z,2.30
2018-05-08T07:55:31.182Z,2.20
2018-05-08T07:56:34.436Z,2.20
2018-05-08T07:57:36.905Z,2.50
2018-05-08T07:58:39.535Z,2.45
2018-05-08T07:59:42.644Z,2.33
2018-05-08T08:00:45.401Z,2.10
2018-05-08T08:01:47.903Z,1.95
2018-05-08T08:02:50.368Z,2.00
2018-05-08T08:03:52.852Z,2.40
2018-05-08T08:04:56.823Z,2.58
2018-05-08T08:05:59.668Z,1.90
2018-05-08T08:07:02.168Z,2.28
2018-05-08T08:08:04.632Z,2.30
2018-05-08T08:09:07.116Z,2.20
2018-05-08T08:10:10.651Z,1.92
2018-05-08T08:11:13.422Z,2.15
2018-05-08T08:12:15.977Z,2.40
2018-05-08T08:13:18.399Z,2.30
2018-05-08T08:14:21.688Z,2.12
2018-05-08T08:15:25.230Z,2.28
2018-05-08T08:16:27.894Z,2.08
2018-05-08T08:17:30.360Z,2.20
2018-05-08T08:18:32.875Z,2.15
2018-05-08T08:19:35.323Z,2.00
2018-05-08T08:20:38.057Z,2.08
2018-05-08T08:21:40.548Z,2.28
2018-05-08T08:22:43.015Z,2.35
2018-05-08T08:23:45.576Z,2.30
2018-05-08T08:24:48.772Z,2.10
2018-05-08T08:25:51.511Z,2.30
2018-05-08T08:26:54.008Z,3.03
2018-05-08T08:27:56.475Z,2.12
2018-05-08T08:28:58.952Z,2.35
2018-05-08T08:30:02.336Z,2.35
2018-05-08T08:31:05.093Z,2.20
2018-05-08T08:32:07.579Z,2.33
2018-05-08T08:33:10.816Z,2.20
2018-05-08T08:34:13.283Z,2.00
2018-05-08T08:35:16.141Z,2.25
2018-05-08T08:36:19.659Z,2.30
2018-05-08T08:37:22.143Z,2.08
2018-05-08T08:38:26.122Z,2.00
2018-05-08T08:39:28.588Z,2.12
2018-05-08T08:40:31.698Z,2.33
2018-05-08T08:41:34.944Z,2.87
2018-05-08T08:42:37.412Z,2.58
2018-05-08T08:43:39.875Z,2.25
2018-05-08T08:44:42.344Z,2.15
2018-05-08T08:45:45.126Z,2.03
2018-05-08T08:46:48.376Z,2.53
2018-05-08T08:47:50.884Z,2.03
2018-05-08T08:48:53.328Z,2.35
2018-05-08T08:49:55.805Z,2.30
2018-05-08T08:50:58.482Z,2.20
2018-05-08T08:52:01.744Z,2.10
2018-05-08T08:53:04.216Z,2.05
2018-05-08T08:54:06.681Z,2.20
2018-05-08T08:55:09.618Z,1.83
2018-05-08T08:56:12.798Z,2.12
2018-05-08T08:57:15.298Z,1.98
2018-05-08T08:58:17.763Z,2.53
2018-05-08T08:59:20.803Z,2.00
2018-05-08T09:00:23.578Z,2.30
2018-05-08T09:01:26.317Z,2.10
2018-05-08T09:02:28.812Z,2.33
2018-05-08T09:03:31.273Z,1.95
2018-05-08T09:04:33.737Z,2.03
2018-05-08T09:05:37.201Z,2.15
2018-05-08T09:06:39.700Z,1.85
2018-05-08T09:07:42.168Z,2.05
2018-05-08T09:08:44.636Z,3.30
2018-05-08T09:09:47.120Z,2.15
2018-05-08T09:10:50.578Z,4.37
2018-05-08T09:11:53.108Z,2.30
2018-05-08T09:12:56.344Z,2.60
2018-05-08T09:13:58.811Z,1.80
2018-05-08T09:15:01.277Z,2.17
2018-05-08T09:16:04.128Z,1.83
2018-05-08T09:17:06.640Z,2.30
2018-05-08T09:18:09.107Z,1.77
2018-05-08T09:19:13.088Z,2.10
2018-05-08T09:20:15.776Z,2.50
2018-05-08T09:21:19.313Z,2.05
2018-05-08T09:22:21.851Z,2.33
2018-05-08T09:23:25.092Z,2.17
2018-05-08T09:24:27.560Z,2.10
2018-05-08T09:25:30.296Z,2.40
2018-05-08T09:26:32.796Z,2.30
2018-05-08T09:27:35.303Z,2.35
2018-05-08T09:28:38.591Z,2.55
2018-05-08T09:29:41.016Z,2.33
2018-05-08T09:30:43.744Z,2.30
2018-05-08T09:31:46.247Z,2.12
2018-05-08T09:32:48.757Z,2.30
2018-05-08T09:33:51.980Z,2.30
2018-05-08T09:34:54.443Z,2.60
2018-05-08T09:35:58.112Z,2.20
2018-05-08T09:37:00.608Z,2.20
2018-05-08T09:38:03.096Z,2.22
2018-05-08T09:39:07.073Z,2.12
2018-05-08T09:40:09.756Z,2.00
2018-05-08T09:41:12.528Z,1.90
2018-05-08T09:42:15.009Z,3.35
2018-05-08T09:43:17.495Z,2.95
2018-05-08T09:44:19.964Z,2.33
2018-05-08T09:45:22.691Z,2.10
2018-05-08T09:46:26.151Z,2.25
2018-05-08T09:47:28.650Z,2.42
2018-05-08T09:48:31.136Z,2.15
2018-05-08T09:49:34.367Z,1.75
2018-05-08T09:50:37.153Z,2.15
2018-05-08T09:51:40.407Z,2.05
2018-05-08T09:52:42.868Z,1.98
2018-05-08T09:53:45.352Z,1.85
2018-05-08T09:54:47.816Z,2.00
2018-05-08T09:55:50.565Z,2.03
2018-05-08T09:56:53.077Z,2.45
2018-05-08T09:57:55.552Z,2.00
2018-05-08T09:58:58.799Z,2.17
2018-05-08T10:00:01.288Z,2.03
2018-05-08T10:01:04.804Z,1.80
2018-05-08T10:02:08.040Z,2.33
2018-05-08T10:03:10.515Z,1.90
2018-05-08T10:04:12.995Z,2.22
2018-05-08T10:05:15.815Z,2.00
2018-05-08T10:06:18.689Z,1.92
2018-05-08T10:07:21.175Z,2.08
2018-05-08T10:08:23.644Z,1.85
2018-05-08T10:09:26.132Z,2.20
2018-05-08T10:10:30.286Z,2.30
2018-05-08T10:11:32.788Z,1.92
2018-05-08T10:12:35.258Z,2.03
2018-05-08T10:13:37.720Z,1.83
2018-05-08T10:14:40.200Z,2.10
2018-05-08T10:15:44.487Z,2.17
2018-05-08T10:16:48.480Z,2.10
2018-05-08T10:17:50.948Z,2.00
2018-05-08T10:18:53.412Z,2.60
2018-05-08T10:19:55.895Z,1.90
2018-05-08T10:20:59.363Z,1.77
2018-05-08T10:22:01.848Z,1.87
2018-05-08T10:23:05.832Z,1.90
2018-05-08T10:24:08.296Z,2.10
2018-05-08T10:25:11.070Z,1.90
2018-05-08T10:26:15.441Z,1.92
2018-05-08T10:27:17.943Z,1.87
2018-05-08T10:28:20.407Z,1.98
2018-05-08T10:29:22.881Z,2.35
2018-05-08T10:30:25.648Z,2.20
2018-05-08T10:31:28.413Z,2.10
2018-05-08T10:32:30.895Z,2.10
2018-05-08T10:33:33.360Z,2.00
2018-05-08T10:34:35.828Z,2.10
2018-05-08T10:35:38.641Z,1.95
2018-05-08T10:36:41.136Z,1.85
2018-05-08T10:37:43.607Z,2.10
2018-05-08T10:38:46.072Z,1.95
2018-05-08T10:39:48.548Z,1.92
2018-05-08T10:40:52.197Z,2.20
2018-05-08T10:41:54.692Z,2.20
2018-05-08T10:42:57.161Z,1.98
2018-05-08T10:43:59.638Z,1.90
2018-05-08T10:45:02.112Z,1.85
2018-05-08T10:46:05.640Z,2.20
2018-05-08T10:47:08.139Z,2.40
2018-05-08T10:48:10.608Z,2.33
2018-05-08T10:49:13.071Z,2.15
2018-05-08T10:50:15.906Z,2.10
2018-05-08T10:51:18.727Z,1.85
2018-05-08T10:52:22.712Z,1.90
2018-05-08T10:53:25.184Z,1.87
2018-05-08T10:54:27.656Z,3.20
2018-05-08T10:55:30.481Z,2.62
2018-05-08T10:56:33.011Z,2.25
2018-05-08T10:57:36.248Z,2.72
2018-05-08T10:58:38.716Z,1.75
2018-05-08T10:59:41.179Z,1.60
2018-05-08T11:00:43.927Z,1.70
2018-05-08T11:01:46.529Z,1.87
2018-05-08T11:02:49.696Z,1.77
2018-05-08T11:03:52.172Z,2.33
2018-05-08T11:04:54.636Z,2.17
2018-05-08T11:05:57.422Z,2.00
2018-05-08T11:07:00.708Z,1.95
2018-05-08T11:08:03.179Z,1.95
2018-05-08T11:09:05.644Z,1.87
2018-05-08T11:10:09.850Z,1.65
2018-05-08T11:11:13.417Z,1.90
2018-05-08T11:12:15.917Z,1.95
2018-05-08T11:13:19.152Z,1.65
2018-05-08T11:14:21.616Z,2.00
2018-05-08T11:15:24.263Z,2.03
2018-05-08T11:16:27.738Z,1.62
2018-05-08T11:17:30.236Z,1.90
2018-05-08T11:18:32.704Z,1.85
2018-05-08T11:19:35.176Z,1.62
2018-05-08T11:20:38.837Z,1.80
2018-05-08T11:21:41.340Z,1.98
2018-05-08T11:22:43.825Z,2.00
2018-05-08T11:23:47.064Z,2.90
2018-05-08T11:24:49.551Z,2.10
2018-05-08T11:25:53.308Z,2.50
2018-05-08T11:26:55.808Z,1.83
2018-05-08T11:27:58.292Z,1.70
2018-05-08T11:29:02.267Z,1.98
2018-05-08T11:30:05.445Z,1.90
2018-05-08T11:31:09.054Z,1.90
2018-05-08T11:32:12.308Z,1.80
2018-05-08T11:33:14.791Z,1.73
2018-05-08T11:34:17.255Z,2.67
2018-05-08T11:35:20.034Z,1.62
2018-05-08T11:36:22.660Z,2.08
2018-05-08T11:37:25.164Z,1.98
2018-05-08T11:38:27.961Z,2.45
2018-05-08T11:39:30.428Z,1.90
2018-05-08T11:40:33.890Z,1.73
2018-05-08T11:41:37.136Z,1.90
2018-05-08T11:42:39.607Z,1.75
2018-05-08T11:43:42.092Z,1.83
2018-05-08T11:44:44.645Z,2.47
2018-05-08T11:45:48.116Z,1.60
2018-05-08T11:46:50.597Z,1.65
2018-05-08T11:47:53.068Z,2.25
2018-05-08T11:48:55.552Z,1.70
2018-05-08T11:49:58.021Z,1.67
2018-05-08T11:51:01.495Z,1.75
2018-05-08T11:52:04.756Z,1.40
2018-05-08T11:53:07.232Z,1.45
2018-05-08T11:54:09.708Z,1.70
2018-05-08T11:55:12.493Z,1.98
2018-05-08T11:56:16.546Z,1.83
2018-05-08T11:57:19.052Z,1.65
2018-05-08T11:58:21.523Z,1.60
2018-05-08T11:59:24.008Z,1.73
2018-05-08T12:00:27.428Z,1.60
2018-05-08T12:01:30.246Z,1.60
2018-05-08T12:02:33.535Z,1.70
2018-05-08T12:03:35.976Z,1.55
2018-05-08T12:04:38.455Z,1.90
2018-05-08T12:05:41.285Z,1.90
2018-05-08T12:06:43.791Z,2.00
2018-05-08T12:07:46.256Z,1.75
2018-05-08T12:08:48.728Z,1.30
2018-05-08T12:09:52.764Z,1.73
2018-05-08T12:10:56.299Z,1.90
2018-05-08T12:11:58.791Z,1.50
2018-05-08T12:13:02.028Z,1.65
2018-05-08T12:14:04.500Z,1.85
2018-05-08T12:15:08.276Z,1.80
2018-05-08T12:16:11.869Z,1.40
2018-05-08T12:17:14.369Z,1.42
2018-05-08T12:18:16.847Z,1.58
2018-05-08T12:19:19.312Z,1.37
2018-05-08T12:20:23.846Z,1.55
2018-05-08T12:21:26.581Z,1.98
2018-05-08T12:22:29.072Z,1.87
2018-05-08T12:23:32.316Z,1.75
2018-05-08T12:24:34.787Z,1.80
2018-05-08T12:25:37.595Z,3.10
2018-05-08T12:26:40.088Z,2.03
2018-05-08T12:27:42.559Z,1.67
2018-05-08T12:28:45.036Z,1.67
2018-05-08T12:29:47.508Z,1.50
2018-05-08T12:30:50.256Z,1.52
2018-05-08T12:31:52.744Z,1.90
2018-05-08T12:32:55.216Z,1.70
2018-05-08T12:33:57.684Z,2.08
2018-05-08T12:35:00.156Z,1.70
2018-05-08T12:36:02.986Z,1.55
2018-05-08T12:37:05.494Z,1.40
2018-05-08T12:38:07.963Z,1.83
2018-05-08T12:39:11.936Z,1.85
2018-05-08T12:40:14.790Z,1.40
2018-05-08T12:41:18.379Z,1.67
2018-05-08T12:42:20.884Z,1.62
2018-05-08T12:43:23.363Z,1.85
2018-05-08T12:44:26.595Z,1.67
2018-05-08T12:45:29.365Z,1.80
2018-05-08T12:46:31.883Z,1.90
2018-05-08T12:47:35.120Z,1.60
2018-05-08T12:48:37.588Z,1.40
2018-05-08T12:49:40.059Z,1.50
2018-05-08T12:50:43.577Z,1.50
2018-05-08T12:51:46.844Z,1.55
2018-05-08T12:52:49.316Z,1.52
2018-05-08T12:53:51.788Z,1.58
2018-05-08T12:54:54.256Z,1.80
2018-05-08T12:55:56.873Z,1.25
2018-05-08T12:56:59.395Z,1.30
2018-05-08T12:58:01.901Z,1.70
2018-05-08T12:59:04.404Z,1.70
2018-05-08T13:00:06.881Z,2.10
2018-05-08T13:01:10.466Z,1.40
2018-05-08T13:02:13.740Z,1.50
2018-05-08T13:03:16.212Z,1.25
2018-05-08T13:04:18.688Z,1.52
2018-05-08T13:05:22.246Z,1.40
2018-05-08T13:06:25.101Z,1.30
2018-05-08T13:07:28.933Z,1.20
2018-05-08T13:08:31.498Z,1.30
2018-05-08T13:09:33.888Z,1.40
2018-05-08T13:10:37.354Z,1.60
2018-05-08T13:11:40.608Z,1.50
2018-05-08T13:12:43.092Z,1.77
2018-05-08T13:13:45.568Z,1.95
2018-05-08T13:14:48.036Z,1.90
2018-05-08T13:15:51.474Z,1.75
2018-05-08T13:16:53.968Z,1.80
2018-05-08T13:17:56.454Z,1.90
2018-05-08T13:19:00.432Z,1.62
2018-05-08T13:20:02.912Z,1.60
2018-05-08T13:21:05.740Z,1.60
2018-05-08T13:22:08.228Z,1.30
2018-05-08T13:23:10.978Z,1.30
2018-05-08T13:24:13.523Z,1.40
2018-05-08T13:25:16.111Z,1.55
2018-05-08T13:26:18.778Z,1.70
2018-05-08T13:27:21.272Z,1.40
2018-05-08T13:28:23.783Z,1.60
2018-05-08T13:29:27.016Z,1.52
2018-05-08T13:30:29.765Z,1.58
2018-05-08T13:31:32.266Z,1.95
2018-05-08T13:32:34.740Z,1.50
2018-05-08T13:33:38.728Z,1.60
2018-05-08T13:34:41.191Z,2.27
2018-05-08T13:35:43.839Z,1.40
2018-05-08T13:36:46.435Z,1.60
2018-05-08T13:37:50.312Z,1.53
2018-05-08T13:38:52.807Z,1.37
2018-05-08T13:39:56.788Z,1.70
2018-05-08T13:40:59.933Z,1.70
2018-05-08T13:42:02.435Z,1.70
2018-05-08T13:43:04.912Z,1.80
2018-05-08T13:44:08.912Z,1.50
2018-05-08T13:45:12.456Z,1.52
2018-05-08T13:46:15.224Z,1.73
2018-05-08T13:47:17.735Z,1.67
2018-05-08T13:48:20.201Z,1.85
2018-05-08T13:49:23.451Z,1.83
2018-05-08T13:50:26.208Z,1.83
2018-05-08T13:51:28.715Z,1.90
2018-05-08T13:52:31.179Z,2.00
2018-05-08T13:53:33.656Z,1.70
2018-05-08T13:54:37.648Z,1.50
2018-05-08T13:55:40.357Z,1.63
2018-05-08T13:56:42.848Z,1.50
2018-05-08T13:57:45.311Z,1.57